Terminal Aerodrome Forecast
Issued by NWS

Home | Current Version | Previous Version | Text Only | Print | Product List | Glossary On
Versions: 1 2 3 4 5 6 7 8 9 10 11 12 13 14 15 16
000
FTUS42 TJSJ 291600 AAA
TAFJBQ
TAF AMD
TJBQ 291600Z 2916/3012 07013G18KT P6SM VCTS SCT030CB
      TEMPO 2916/2918 10010KT 4SM SHRA BKN025
     FM291800 09012KT P6SM VCTS SCT025CB BKN060
     FM292300 09008KT P6SM SCT025
      AMD NOT SKED 3002/3011=

USA.gov is the U.S. government's official web portal to all federal, state and local government web resources and services.